sensor_id;sensor_type;location;lat;lon;timestamp;P1;P2;P0
65574;PMS5003;52216;54.942;73.394;2023-05-07T14:44:18;33.00;31.00;19.00
65574;PMS5003;52216;54.942;73.394;2023-05-07T14:47:20;32.00;31.00;19.00
65574;PMS5003;52216;54.942;73.394;2023-05-07T14:50:22;28.50;27.50;18.00
65574;PMS5003;52216;54.942;73.394;2023-05-07T14:53:33;25.50;25.50;16.00
65574;PMS5003;52216;54.942;73.394;2023-05-07T14:56:35;24.25;24.25;15.00
65574;PMS5003;52216;54.942;73.394;2023-05-07T14:59:37;21.00;21.00;11.00
65574;PMS5003;52216;54.942;73.394;2023-05-07T15:02:41;19.00;19.00;8.25
65574;PMS5003;52216;54.942;73.394;2023-05-07T15:05:44;20.80;19.00;9.00
65574;PMS5003;52216;54.942;73.394;2023-05-07T15:08:48;23.75;20.00;10.00
65574;PMS5003;52216;54.942;73.394;2023-05-07T15:11:51;23.60;22.20;11.60
65574;PMS5003;52216;54.942;73.394;2023-05-07T15:14:54;23.80;21.00;13.00
65574;PMS5003;52216;54.942;73.394;2023-05-07T15:17:56;38.75;31.25;17.75
65574;PMS5003;52216;54.942;73.394;2023-05-07T15:20:58;31.50;28.00;19.00
65574;PMS5003;52216;54.942;73.394;2023-05-07T15:24:01;28.00;26.00;18.00
65574;PMS5003;52216;54.942;73.394;2023-05-07T15:27:07;25.25;22.00;15.00
65574;PMS5003;52216;54.942;73.394;2023-05-07T15:30:10;26.60;23.00;14.00
65574;PMS5003;52216;54.942;73.394;2023-05-07T15:33:12;23.00;21.75;14.00
65574;PMS5003;52216;54.942;73.394;2023-05-07T15:36:15;21.40;19.00;11.00
65574;PMS5003;52216;54.942;73.394;2023-05-07T15:39:17;20.00;19.00;8.00
65574;PMS5003;52216;54.942;73.394;2023-05-07T15:42:21;17.00;16.00;6.50
65574;PMS5003;52216;54.942;73.394;2023-05-07T15:45:24;17.00;16.00;6.00
65574;PMS5003;52216;54.942;73.394;2023-05-07T15:48:28;19.40;17.00;7.20
65574;PMS5003;52216;54.942;73.394;2023-05-07T15:51:37;17.83;17.00;7.00
65574;PMS5003;52216;54.942;73.394;2023-05-07T15:54:40;14.25;14.25;5.75
65574;PMS5003;52216;54.942;73.394;2023-05-07T15:57:42;10.75;10.50;4.25
65574;PMS5003;52216;54.942;73.394;2023-05-07T16:00:45;13.00;11.50;5.00
65574;PMS5003;52216;54.942;73.394;2023-05-07T16:03:48;19.00;16.25;7.75
65574;PMS5003;52216;54.942;73.394;2023-05-07T16:06:50;21.00;19.75;10.00
65574;PMS5003;52216;54.942;73.394;2023-05-07T16:09:52;21.50;19.25;8.25
65574;PMS5003;52216;54.942;73.394;2023-05-07T16:12:55;23.60;21.00;9.60
65574;PMS5003;52216;54.942;73.394;2023-05-07T16:15:58;19.50;19.00;8.75
65574;PMS5003;52216;54.942;73.394;2023-05-07T16:19:02;18.00;17.00;6.00
65574;PMS5003;52216;54.942;73.394;2023-05-07T16:22:05;18.00;16.00;8.00
65574;PMS5003;52216;54.942;73.394;2023-05-07T16:25:07;18.00;16.00;7.25
65574;PMS5003;52216;54.942;73.394;2023-05-07T16:28:10;20.75;19.00;8.75
65574;PMS5003;52216;54.942;73.394;2023-05-07T16:31:13;23.00;20.75;9.00
65574;PMS5003;52216;54.942;73.394;2023-05-07T16:34:18;23.60;23.20;12.80
65574;PMS5003;52216;54.942;73.394;2023-05-07T16:37:22;27.20;26.00;15.00
65574;PMS5003;52216;54.942;73.394;2023-05-07T16:40:24;26.00;23.00;17.00
65574;PMS5003;52216;54.942;73.394;2023-05-07T16:43:27;24.00;22.00;16.00
65574;PMS5003;52216;54.942;73.394;2023-05-07T16:46:29;21.00;20.00;14.00
65574;PMS5003;52216;54.942;73.394;2023-05-07T16:49:32;21.00;19.00;11.00
65574;PMS5003;52216;54.942;73.394;2023-05-07T16:52:33;20.00;18.00;9.00
65574;PMS5003;52216;54.942;73.394;2023-05-07T16:55:37;19.75;17.00;8.00
65574;PMS5003;52216;54.942;73.394;2023-05-07T16:58:43;19.50;18.00;8.00
65574;PMS5003;52216;54.942;73.394;2023-05-07T17:01:46;19.00;18.00;6.00
65574;PMS5003;52216;54.942;73.394;2023-05-07T17:04:49;17.00;14.00;5.00
65574;PMS5003;52216;54.942;73.394;2023-05-07T17:07:52;17.00;13.75;5.75
65574;PMS5003;52216;54.942;73.394;2023-05-07T17:10:56;12.00;10.00;4.00
65574;PMS5003;52216;54.942;73.394;2023-05-07T17:13:58;10.50;10.50;5.25
65574;PMS5003;52216;54.942;73.394;2023-05-07T17:17:01;13.00;13.00;6.00
65574;PMS5003;52216;54.942;73.394;2023-05-07T17:20:03;15.00;13.50;5.50
65574;PMS5003;52216;54.942;73.394;2023-05-07T17:23:07;16.25;12.00;5.00
65574;PMS5003;52216;54.942;73.394;2023-05-07T17:26:13;16.00;12.50;5.00
65574;PMS5003;52216;54.942;73.394;2023-05-07T17:29:19;16.00;10.00;5.25
65574;PMS5003;52216;54.942;73.394;2023-05-07T17:32:22;13.00;9.00;5.00
65574;PMS5003;52216;54.942;73.394;2023-05-07T17:35:26;10.00;8.00;5.00
65574;PMS5003;52216;54.942;73.394;2023-05-07T17:38:29;9.00;8.00;5.00
65574;PMS5003;52216;54.942;73.394;2023-05-07T17:41:35;10.50;9.00;5.25
65574;PMS5003;52216;54.942;73.394;2023-05-07T17:44:38;13.00;11.00;6.00
65574;PMS5003;52216;54.942;73.394;2023-05-07T17:48:14;15.67;15.00;8.33
65574;PMS5003;52216;54.942;73.394;2023-05-07T17:51:16;16.50;14.00;8.00
65574;PMS5003;52216;54.942;73.394;2023-05-07T17:54:20;17.75;13.00;8.00
65574;PMS5003;52216;54.942;73.394;2023-05-07T17:57:22;16.00;14.00;7.00
65574;PMS5003;52216;54.942;73.394;2023-05-07T18:00:26;16.00;14.00;7.00
65574;PMS5003;52216;54.942;73.394;2023-05-07T18:03:29;16.50;15.00;6.00
65574;PMS5003;52216;54.942;73.394;2023-05-07T18:06:32;13.25;12.00;5.00
65574;PMS5003;52216;54.942;73.394;2023-05-07T18:09:34;13.00;11.75;6.00
65574;PMS5003;52216;54.942;73.394;2023-05-07T18:12:40;12.00;9.67;4.67
65574;PMS5003;52216;54.942;73.394;2023-05-07T18:15:44;11.00;8.00;5.00
65574;PMS5003;52216;54.942;73.394;2023-05-07T18:18:46;9.00;8.50;4.00
65574;PMS5003;52216;54.942;73.394;2023-05-07T18:21:48;9.25;9.00;4.00
65574;PMS5003;52216;54.942;73.394;2023-05-07T18:24:52;10.00;9.00;4.00
65574;PMS5003;52216;54.942;73.394;2023-05-07T18:27:54;9.00;9.00;4.00
65574;PMS5003;52216;54.942;73.394;2023-05-07T18:30:55;7.50;7.00;3.00
65574;PMS5003;52216;54.942;73.394;2023-05-07T18:33:57;8.00;7.00;3.00
65574;PMS5003;52216;54.942;73.394;2023-05-07T18:36:59;8.75;8.25;4.00
65574;PMS5003;52216;54.942;73.394;2023-05-07T18:40:01;8.00;7.50;4.00
65574;PMS5003;52216;54.942;73.394;2023-05-07T18:43:06;6.00;5.25;4.00
65574;PMS5003;52216;54.942;73.394;2023-05-07T18:46:09;6.50;5.75;3.00
65574;PMS5003;52216;54.942;73.394;2023-05-07T18:49:11;6.75;6.00;2.00
65574;PMS5003;52216;54.942;73.394;2023-05-07T18:52:13;6.75;5.00;2.00
65574;PMS5003;52216;54.942;73.394;2023-05-07T18:55:17;6.00;6.00;3.00
65574;PMS5003;52216;54.942;73.394;2023-05-07T18:58:19;6.75;6.75;2.00
65574;PMS5003;52216;54.942;73.394;2023-05-07T19:01:29;5.00;5.00;2.00
65574;PMS5003;52216;54.942;73.394;2023-05-07T19:04:33;6.75;5.75;2.50
65574;PMS5003;52216;54.942;73.394;2023-05-07T19:07:34;6.00;5.00;2.00
65574;PMS5003;52216;54.942;73.394;2023-05-07T19:10:37;7.00;7.00;3.00
65574;PMS5003;52216;54.942;73.394;2023-05-07T19:13:39;6.00;5.25;3.00
65574;PMS5003;52216;54.942;73.394;2023-05-07T19:16:41;6.00;5.67;3.00
65574;PMS5003;52216;54.942;73.394;2023-05-07T19:19:43;8.00;7.00;2.50
65574;PMS5003;52216;54.942;73.394;2023-05-07T19:22:49;6.00;6.00;3.00
65574;PMS5003;52216;54.942;73.394;2023-05-07T19:25:52;5.00;5.00;3.00
65574;PMS5003;52216;54.942;73.394;2023-05-07T19:28:54;7.67;7.00;4.00
65574;PMS5003;52216;54.942;73.394;2023-05-07T19:31:57;5.75;4.25;1.00
65574;PMS5003;52216;54.942;73.394;2023-05-07T19:35:00;5.25;5.25;3.00
65574;PMS5003;52216;54.942;73.394;2023-05-07T19:38:02;5.67;5.00;3.00
65574;PMS5003;52216;54.942;73.394;2023-05-07T19:41:06;6.00;4.00;2.00
65574;PMS5003;52216;54.942;73.394;2023-05-07T19:44:08;6.75;6.75;3.00
65574;PMS5003;52216;54.942;73.394;2023-05-07T19:47:11;6.00;6.00;2.00
65574;PMS5003;52216;54.942;73.394;2023-05-07T19:50:13;5.50;5.00;3.00
65574;PMS5003;52216;54.942;73.394;2023-05-07T19:53:14;6.50;6.00;4.00
65574;PMS5003;52216;54.942;73.394;2023-05-07T19:56:16;6.00;6.00;3.00
65574;PMS5003;52216;54.942;73.394;2023-05-07T19:59:18;6.67;6.00;2.00
65574;PMS5003;52216;54.942;73.394;2023-05-07T20:02:20;7.50;7.50;4.00
65574;PMS5003;52216;54.942;73.394;2023-05-07T20:05:22;7.25;7.25;3.00
65574;PMS5003;52216;54.942;73.394;2023-05-07T20:08:24;8.00;7.00;3.25
65574;PMS5003;52216;54.942;73.394;2023-05-07T20:11:28;8.00;7.50;4.00
65574;PMS5003;52216;54.942;73.394;2023-05-07T20:14:32;11.67;11.00;5.67
65574;PMS5003;52216;54.942;73.394;2023-05-07T20:17:34;11.00;10.00;6.00
65574;PMS5003;52216;54.942;73.394;2023-05-07T20:20:37;11.00;10.25;4.00
65574;PMS5003;52216;54.942;73.394;2023-05-07T20:23:39;11.00;11.00;6.00
65574;PMS5003;52216;54.942;73.394;2023-05-07T20:26:43;7.00;7.00;3.00
65574;PMS5003;52216;54.942;73.394;2023-05-07T20:29:46;9.67;7.67;3.00
65574;PMS5003;52216;54.942;73.394;2023-05-07T20:32:49;7.00;6.00;4.00
65574;PMS5003;52216;54.942;73.394;2023-05-07T20:35:51;8.00;6.50;3.00
65574;PMS5003;52216;54.942;73.394;2023-05-07T20:38:53;6.00;6.00;3.00
65574;PMS5003;52216;54.942;73.394;2023-05-07T20:41:55;4.50;4.00;3.00
65574;PMS5003;52216;54.942;73.394;2023-05-07T20:44:58;6.00;6.00;2.00
65574;PMS5003;52216;54.942;73.394;2023-05-07T20:48:00;6.50;6.00;4.00
65574;PMS5003;52216;54.942;73.394;2023-05-07T20:51:02;7.50;7.25;5.00
65574;PMS5003;52216;54.942;73.394;2023-05-07T20:54:08;10.00;9.33;3.00
65574;PMS5003;52216;54.942;73.394;2023-05-07T20:57:12;9.33;7.33;3.00
65574;PMS5003;52216;54.942;73.394;2023-05-07T21:00:16;9.75;9.75;4.00
65574;PMS5003;52216;54.942;73.394;2023-05-07T21:03:35;8.00;7.00;3.00
65574;PMS5003;52216;54.942;73.394;2023-05-07T21:06:37;7.25;6.50;2.00
65574;PMS5003;52216;54.942;73.394;2023-05-07T21:09:44;8.00;7.00;2.00
65574;PMS5003;52216;54.942;73.394;2023-05-07T21:12:47;8.67;7.67;3.00
65574;PMS5003;52216;54.942;73.394;2023-05-07T21:15:49;8.00;7.00;4.00
65574;PMS5003;52216;54.942;73.394;2023-05-07T21:18:51;7.00;7.00;2.00
65574;PMS5003;52216;54.942;73.394;2023-05-07T21:21:53;6.50;6.50;2.25
65574;PMS5003;52216;54.942;73.394;2023-05-07T21:24:58;4.75;4.75;3.00
65574;PMS5003;52216;54.942;73.394;2023-05-07T21:28:03;6.67;6.00;3.00
65574;PMS5003;52216;54.942;73.394;2023-05-07T21:31:05;6.75;6.00;3.00
65574;PMS5003;52216;54.942;73.394;2023-05-07T21:34:14;8.50;8.50;3.00
65574;PMS5003;52216;54.942;73.394;2023-05-07T21:37:17;7.00;6.00;4.00
65574;PMS5003;52216;54.942;73.394;2023-05-07T21:40:19;7.75;5.25;3.00
65574;PMS5003;52216;54.942;73.394;2023-05-07T21:43:23;7.00;6.50;3.00
65574;PMS5003;52216;54.942;73.394;2023-05-07T21:46:25;8.00;8.00;3.00
65574;PMS5003;52216;54.942;73.394;2023-05-07T21:49:28;7.00;6.00;3.25
65574;PMS5003;52216;54.942;73.394;2023-05-07T21:52:29;7.75;6.00;3.00
65574;PMS5003;52216;54.942;73.394;2023-05-07T21:55:32;6.00;6.00;3.25
65574;PMS5003;52216;54.942;73.394;2023-05-07T21:58:34;7.75;6.00;4.50
65574;PMS5003;52216;54.942;73.394;2023-05-07T22:01:36;5.00;5.00;2.00
65574;PMS5003;52216;54.942;73.394;2023-05-07T22:04:38;6.00;5.00;2.00
65574;PMS5003;52216;54.942;73.394;2023-05-07T22:07:40;8.00;7.00;2.00
65574;PMS5003;52216;54.942;73.394;2023-05-07T22:10:42;6.00;6.00;2.00
65574;PMS5003;52216;54.942;73.394;2023-05-07T22:13:44;8.00;7.50;3.00
65574;PMS5003;52216;54.942;73.394;2023-05-07T22:16:46;8.00;8.00;2.00
65574;PMS5003;52216;54.942;73.394;2023-05-07T22:19:48;7.50;7.25;2.00
65574;PMS5003;52216;54.942;73.394;2023-05-07T22:22:52;8.00;7.75;3.00
65574;PMS5003;52216;54.942;73.394;2023-05-07T22:25:55;6.75;6.25;3.00
65574;PMS5003;52216;54.942;73.394;2023-05-07T22:28:58;8.00;8.00;5.00
65574;PMS5003;52216;54.942;73.394;2023-05-07T22:32:01;8.00;8.00;4.00
65574;PMS5003;52216;54.942;73.394;2023-05-07T22:35:03;6.00;6.00;2.00
65574;PMS5003;52216;54.942;73.394;2023-05-07T22:38:07;7.50;6.75;2.50
65574;PMS5003;52216;54.942;73.394;2023-05-07T22:41:09;6.33;6.33;4.00
65574;PMS5003;52216;54.942;73.394;2023-05-07T22:44:12;6.50;5.00;2.00
65574;PMS5003;52216;54.942;73.394;2023-05-07T22:47:14;6.00;5.25;2.75
65574;PMS5003;52216;54.942;73.394;2023-05-07T22:50:17;6.25;6.25;3.00
65574;PMS5003;52216;54.942;73.394;2023-05-07T22:53:21;7.00;6.00;4.00
65574;PMS5003;52216;54.942;73.394;2023-05-07T22:56:23;6.00;6.00;3.00
65574;PMS5003;52216;54.942;73.394;2023-05-07T22:59:25;6.33;6.00;3.00
65574;PMS5003;52216;54.942;73.394;2023-05-07T23:02:27;6.75;5.75;3.00
65574;PMS5003;52216;54.942;73.394;2023-05-07T23:05:30;7.00;7.00;3.00
65574;PMS5003;52216;54.942;73.394;2023-05-07T23:08:33;6.50;6.25;3.00
65574;PMS5003;52216;54.942;73.394;2023-05-07T23:11:35;6.75;6.25;2.00
65574;PMS5003;52216;54.942;73.394;2023-05-07T23:14:39;5.75;4.75;2.00
65574;PMS5003;52216;54.942;73.394;2023-05-07T23:17:41;5.00;5.00;2.00
65574;PMS5003;52216;54.942;73.394;2023-05-07T23:20:44;6.75;6.00;3.00
65574;PMS5003;52216;54.942;73.394;2023-05-07T23:23:48;7.00;5.25;3.00
65574;PMS5003;52216;54.942;73.394;2023-05-07T23:26:52;7.00;6.00;3.00
65574;PMS5003;52216;54.942;73.394;2023-05-07T23:29:55;5.67;5.67;3.00
65574;PMS5003;52216;54.942;73.394;2023-05-07T23:32:57;8.50;6.75;3.00
65574;PMS5003;52216;54.942;73.394;2023-05-07T23:36:01;8.00;8.00;4.00
65574;PMS5003;52216;54.942;73.394;2023-05-07T23:39:05;7.00;7.00;4.00
65574;PMS5003;52216;54.942;73.394;2023-05-07T23:42:07;7.00;7.00;3.00
65574;PMS5003;52216;54.942;73.394;2023-05-07T23:45:09;6.00;6.00;3.75
65574;PMS5003;52216;54.942;73.394;2023-05-07T23:48:11;7.00;7.00;3.00
65574;PMS5003;52216;54.942;73.394;2023-05-07T23:51:14;7.00;7.00;4.00
65574;PMS5003;52216;54.942;73.394;2023-05-07T23:54:17;6.75;5.75;2.00
65574;PMS5003;52216;54.942;73.394;2023-05-07T23:57:20;6.00;5.00;3.00
